createdAt,value
2023-03-29T00:12:31.934Z,1018
2023-03-29T00:28:15.113Z,1018
2023-03-29T00:43:57.491Z,1018
2023-03-29T00:59:40.245Z,1018
2023-03-29T01:15:22.766Z,1017
2023-03-29T01:31:05.388Z,1017
2023-03-29T01:46:48.034Z,1017
2023-03-29T02:02:30.357Z,1017
2023-03-29T02:18:13.425Z,1016
2023-03-29T02:33:56.553Z,1016
2023-03-29T02:49:38.927Z,1016
2023-03-29T03:21:04.748Z,1016
2023-03-29T03:36:47.666Z,1016
2023-03-29T03:52:30.115Z,1016
2023-03-29T04:08:12.380Z,1015
2023-03-29T04:23:55.558Z,1015
2023-03-29T04:39:37.914Z,1015
2023-03-29T05:26:46.121Z,1015
2023-03-29T05:27:33.596Z,1015
2023-03-29T06:14:42.029Z,1015
2023-03-29T06:30:24.287Z,1015
2023-03-29T06:46:14.254Z,1015
2023-03-29T07:17:32.212Z,1015
2023-03-29T07:33:15.268Z,1015
2023-03-29T07:49:04.700Z,1014
2023-03-29T08:04:40.697Z,1014
2023-03-29T08:20:23.780Z,1014
2023-03-29T08:36:13.864Z,1014
2023-03-29T08:51:49.837Z,1014
2023-03-29T10:10:23.796Z,1013
2023-03-29T10:26:06.540Z,1013
2023-03-29T10:42:03.113Z,1013
2023-03-29T10:57:38.831Z,1013
2023-03-29T11:13:14.122Z,1013
2023-03-29T11:28:56.526Z,1013
2023-03-29T11:44:39.437Z,1012
2023-03-29T12:16:04.745Z,1012
2023-03-29T12:31:54.727Z,1012
2023-03-29T12:47:37.706Z,1012
2023-03-29T13:18:56.207Z,1012
2023-03-29T13:34:52.885Z,1012
2023-03-29T13:50:20.916Z,1012
2023-03-29T14:06:03.041Z,1012
2023-03-29T14:21:45.776Z,1012
2023-03-29T14:37:28.593Z,1012
2023-03-29T14:53:10.676Z,1012
2023-03-29T15:08:53.295Z,1011
2023-03-29T15:24:35.491Z,1011
2023-03-29T15:40:17.988Z,1011
2023-03-29T15:56:07.211Z,1011
2023-03-29T16:11:42.872Z,1011
2023-03-29T16:27:25.305Z,1011
2023-03-29T16:43:08.070Z,1011
2023-03-29T16:58:51.097Z,1011
2023-03-29T17:14:33.830Z,1011
2023-03-29T17:30:16.008Z,1011
2023-03-29T17:45:58.107Z,1010
2023-03-29T18:01:40.726Z,1010
2023-03-29T18:17:23.394Z,1011
2023-03-29T18:33:05.954Z,1011
2023-03-29T18:48:48.933Z,1011
2023-03-29T19:04:31.828Z,1011
2023-03-29T19:20:14.127Z,1010
2023-03-29T19:35:56.636Z,1010
2023-03-29T19:51:39.400Z,1010
2023-03-29T20:07:21.776Z,1010
2023-03-29T20:23:04.505Z,1010
2023-03-29T20:38:46.921Z,1010
2023-03-29T20:54:29.817Z,1010
2023-03-29T21:10:12.393Z,1009
2023-03-29T21:25:55.484Z,1009
2023-03-29T21:41:38.035Z,1009
2023-03-29T21:57:20.125Z,1009
2023-03-29T22:13:03.220Z,1009
2023-03-29T22:28:45.380Z,1009
2023-03-29T22:44:28.237Z,1009
2023-03-29T23:00:10.406Z,1009
2023-03-29T23:15:53.213Z,1008
2023-03-29T23:31:35.709Z,1008
2023-03-29T23:47:18.465Z,1008
